Hartford, Connecticut
Traffic Map
Current Weather Conditions
Hartford, Connecticut
Overcast
Overcast
50°
Feels Like: 50°
Wind Chill: 50° Ceiling: 3100
Heat Index: 50° Visibility: 8mi
Dew Point: 41° Wind: 10mph
Humidity: 71% Direction: 10° (N)
Pressure: 29.76in Gusts: 0mph
Raw Report DataKHFD 222053Z 01009KT 8SM OVC031 10/05 A2976 RMK AO2 SLP077 T01000050 53006
Traffic Incident Summary
Active as of:
Severity:
Category:
InformationThere was an issue retrieving the traffic information for this location. Please try a different location or try again shortly.
Advertisements
Track Severe Weather on mobile